Main page
METAR-TAF:

Airports :

Islamabad, Pakistan

Benazir Bhutto International Airport

latitude: 33-37N, longitude: 073-06E, elevation: 507 m

Current weather observation

The report was made 14 minutes ago, at 13:30 UTC
Wind 6 kt from the Southwest
Temperature 33°C
Humidity 53%
Pressure 1008 hPa
Visibility: 4000 m
Few clouds at a height of 10000 ft
haze

METAR: OPRN 011330Z 23006KT 4000 HZ FEW100 33/22 Q1008.9/29.79

Time: 18:44 (13:44 UTC)

Forecast

The report was made 10 hours and 14 minutes ago, at 03:30 UTC
Forecast valid from 01 at 06 UTC to 02 at 12 UTC
Wind 10 kt from the South/Southwest
Visibility: 4000 m
Scattered clouds at a height of 4000 ft
haze
Temporary
from 02 at 01 UTC to 02 at 05 UTC
Wind 10 kt from the Southeast
Visibility: 2500 m
Scattered clouds at a height of 3000 ft
mist

TAF: OPRN 010330Z 0106/0212 21010KT 4000 HZ SCT040 TEMPO 0201/0205 13010KT 2500 BR SCT030

METAR-TAF

Weather observations and forecasts of more than 4000 airports (METAR and TAF reports).

The available stations are represented by yellow and red dots on the map.

Hover mouse over dot to see the name of the station.

Then click to see weather observations and forecasts.

To change the map : click on the green buttons with a black cross to zoom in, on the green button with a dash to zoom out, or on the green arrows for adjacent maps.


METAR-TAF: